»·PEaware :: N969WR KDEN-KTEX

N969WR :: KDEN-KTEX

FLIGHT INFORMATION

Flight Status: Arrived
Operator: Privately registered:
United States
More flights under this callsign
Pilot: Ion I. (24133)
Aircraft: CANADAIR CL-600 CHALLENGER
(CL60)
More flights by this aircraft type
Origin: KDEN Denver Intl
United States
Destination: KTEX Telluride Regl
United States
More flights between these airports :: More routes between these airports
Route: BAYLR6 TEHRU HERRM ETL
File this flight plan on PilotEdge
Remarks:
Altitude:
(Current/Filed)
32,000ft
Speed:
(Current/Filed)
460kts
Departed: 02-Sep-23 11:14 AM
Arrived: 02-Sep-23 11:52 AM
Distance/Time
Traveled:
189nm/0:37
Distance/Time
To Go:
Arrived

Flight Plot

Page will automatically refresh every two minutes.

Flight plan parsing failed; only flown route is shown


Map Options




Map Legend


Flown Route
Filed Route
Departure Airport
Arrival Airport
Navaid (VOR, NDB)
Fix

Horizontal Profiles

Position Reports

Time Latitude Longitude Heading Altitude Ground
Speed
02-Sep-23 10:43 39.839357 -104.665162 32 5411ft 0kts
02-Sep-23 10:44 39.839357 -104.665162 32 5411ft 0kts
02-Sep-23 10:45 39.839357 -104.665162 32 5411ft 0kts
02-Sep-23 10:46 39.839357 -104.665162 32 5411ft 0kts
02-Sep-23 10:47 39.839357 -104.665162 32 5411ft 0kts
02-Sep-23 10:48 39.839357 -104.665162 32 5411ft 0kts
02-Sep-23 10:49 39.839357 -104.665162 32 5411ft 0kts
02-Sep-23 10:50 39.839357 -104.665162 32 5411ft 0kts
02-Sep-23 10:51 39.839357 -104.665162 32 5411ft 0kts
02-Sep-23 10:52 39.839357 -104.665162 32 5411ft 0kts
02-Sep-23 10:53 39.839357 -104.665162 32 5411ft 0kts
02-Sep-23 10:54 39.839357 -104.665162 32 5411ft 0kts
02-Sep-23 10:55 39.839357 -104.665162 32 5411ft 0kts
02-Sep-23 10:56 39.839357 -104.665162 32 5411ft 0kts
02-Sep-23 10:57 39.839357 -104.665162 32 5411ft 0kts
02-Sep-23 10:58 39.839357 -104.665162 32 5411ft 0kts
02-Sep-23 10:59 39.839357 -104.665162 32 5411ft 0kts
02-Sep-23 11:00 39.839357 -104.665162 32 5411ft 0kts
02-Sep-23 11:01 39.839357 -104.665162 32 5411ft 0kts
02-Sep-23 11:02 39.839357 -104.665162 32 5411ft 0kts
02-Sep-23 11:03 39.839357 -104.665162 32 5411ft 0kts
02-Sep-23 11:04 39.839357 -104.665162 32 5411ft 0kts
02-Sep-23 11:05 39.839357 -104.665162 32 5411ft 0kts
02-Sep-23 11:05 39.839357 -104.665162 32 5411ft 0kts
02-Sep-23 11:06 39.839357 -104.665162 32 5411ft 0kts
02-Sep-23 11:08 39.839702 -104.664752 85 5411ft 5kts
02-Sep-23 11:09 39.840202 -104.663072 92 5413ft 9kts
02-Sep-23 11:09 39.843786 -104.662505 0 5402ft 23kts
02-Sep-23 11:10 39.851567 -104.662405 0 5393ft 30kts
02-Sep-23 11:11 39.860129 -104.662294 1 5385ft 18kts
02-Sep-23 11:12 39.860842 -104.660149 181 5385ft 8kts
02-Sep-23 11:14 39.823438 -104.660701 182 6305ft 189kts
02-Sep-23 11:14 39.779877 -104.683456 227 8289ft 236kts
02-Sep-23 11:15 39.761952 -104.766570 276 10419ft 293kts
02-Sep-23 11:16 39.772898 -104.876719 277 10459ft 305kts
02-Sep-23 11:17 39.758527 -104.981759 254 11999ft 311kts
02-Sep-23 11:18 39.716291 -105.088514 237 14040ft 352kts
02-Sep-23 11:19 39.661945 -105.196896 235 16953ft 360kts
02-Sep-23 11:20 39.606166 -105.305735 235 20278ft 366kts
02-Sep-23 11:21 39.549118 -105.418392 235 22532ft 389kts
02-Sep-23 11:22 39.487623 -105.539516 235 24060ft 404kts
02-Sep-23 11:23 39.425713 -105.661220 235 25956ft 407kts
02-Sep-23 11:24 39.369324 -105.770799 233 31913ft 295kts
02-Sep-23 11:25 39.324267 -105.858176 232 33711ft 300kts
02-Sep-23 11:26 39.272489 -105.958470 233 33536ft 366kts
02-Sep-23 11:27 39.211830 -106.075269 233 33523ft 415kts
02-Sep-23 11:28 39.144070 -106.205447 234 33440ft 451kts
02-Sep-23 11:29 39.073212 -106.341139 234 33452ft 458kts
02-Sep-23 11:30 39.001896 -106.477189 234 33423ft 457kts
02-Sep-23 11:31 38.930287 -106.613255 234 33422ft 459kts
02-Sep-23 11:32 38.858639 -106.748764 233 33411ft 459kts
02-Sep-23 11:33 38.786788 -106.884165 233 33414ft 459kts
02-Sep-23 11:34 38.714462 -107.019785 233 33377ft 460kts
02-Sep-23 11:35 38.642130 -107.154841 234 33409ft 460kts
02-Sep-23 11:36 38.569618 -107.289895 234 31989ft 450kts
02-Sep-23 11:37 38.501326 -107.416642 233 29865ft 420kts
02-Sep-23 11:38 38.436154 -107.536978 234 27708ft 408kts
02-Sep-23 11:39 38.388112 -107.665637 247 25391ft 396kts
02-Sep-23 11:40 38.350507 -107.796464 247 23276ft 387kts
02-Sep-23 11:41 38.314225 -107.923392 248 21087ft 374kts
02-Sep-23 11:42 38.279157 -108.046046 247 18970ft 362kts
02-Sep-23 11:43 38.244652 -108.165323 247 16589ft 357kts
02-Sep-23 11:44 38.209069 -108.279102 234 14484ft 343kts
02-Sep-23 11:45 38.124812 -108.299930 162 13534ft 312kts
02-Sep-23 11:46 38.046045 -108.256942 136 13504ft 290kts
02-Sep-23 11:47 38.013739 -108.171388 111 13496ft 263kts
02-Sep-23 11:48 37.990370 -108.084294 105 12439ft 255kts
02-Sep-23 11:49 37.974549 -108.007345 108 10826ft 187kts
02-Sep-23 11:50 37.961558 -107.946330 104 9701ft 172kts
02-Sep-23 11:51 37.952923 -107.904291 105 9076ft 30kts
02-Sep-23 11:52 37.953320 -107.901239 312 9078ft 5kts
02-Sep-23 11:53 37.953618 -107.901924 117 9078ft 9kts
02-Sep-23 11:54 37.953624 -107.900604 285 9078ft 0kts
02-Sep-23 11:55 37.953624 -107.900604 285 9078ft 0kts
02-Sep-23 11:56 37.953624 -107.900604 285 9078ft 0kts
02-Sep-23 11:57 37.953624 -107.900604 285 9078ft 0kts
02-Sep-23 11:58 37.953624 -107.900604 285 9078ft 0kts
02-Sep-23 11:59 37.953624 -107.900604 285 9078ft 0kts
02-Sep-23 12:00 37.953624 -107.900604 285 9078ft 0kts
02-Sep-23 12:01 37.953624 -107.900604 285 9078ft 0kts
02-Sep-23 12:02 37.953624 -107.900604 285 9078ft 0kts
02-Sep-23 12:03 37.953624 -107.900604 285 9078ft 0kts
02-Sep-23 12:04 37.953624 -107.900604 285 9078ft 0kts
02-Sep-23 12:05 37.953624 -107.900604 285 9078ft 0kts

Navigation Log

Ident Type
Flight plan parsing failed, navigation log unavailable